createdAt,value
2023-05-04T00:02:17.923Z,72.15
2023-05-04T00:04:46.048Z,72.14
2023-05-04T00:07:12.705Z,71.90
2023-05-04T00:09:39.498Z,60.70
2023-05-04T00:12:06.935Z,73.59
2023-05-04T00:14:33.554Z,58.49
2023-05-04T00:17:00.194Z,74.04
2023-05-04T00:19:26.780Z,78.82
2023-05-04T00:21:54.809Z,76.64
2023-05-04T00:24:21.574Z,73.30
2023-05-04T00:26:48.179Z,72.52
2023-05-04T00:29:14.845Z,66.83
2023-05-04T00:31:41.609Z,72.48
2023-05-04T00:34:08.712Z,73.02
2023-05-04T00:36:35.624Z,72.15
2023-05-04T00:39:03.778Z,72.16
2023-05-04T00:41:30.621Z,71.96
2023-05-04T00:43:59.716Z,71.74
2023-05-04T00:46:26.800Z,72.06
2023-05-04T00:48:54.142Z,72.13
2023-05-04T00:51:23.237Z,71.36
2023-05-04T00:53:50.700Z,71.77
2023-05-04T00:56:23.722Z,71.84
2023-05-04T00:58:54.251Z,71.59
2023-05-04T01:01:21.661Z,70.84
2023-05-04T01:03:48.504Z,71.42
2023-05-04T01:06:25.285Z,69.42
2023-05-04T01:08:58.680Z,68.33
2023-05-04T01:11:37.111Z,79.60
2023-05-04T01:14:04.922Z,73.75
2023-05-04T01:16:31.537Z,67.82
2023-05-04T01:18:58.178Z,75.47
2023-05-04T01:21:29.609Z,72.34
2023-05-04T01:23:56.377Z,72.39
2023-05-04T01:26:25.522Z,72.12
2023-05-04T01:29:00.628Z,72.12
2023-05-04T01:31:27.756Z,72.20
2023-05-04T01:33:55.092Z,72.13
2023-05-04T01:36:22.799Z,71.17
2023-05-04T01:38:54.117Z,71.50
2023-05-04T01:41:21.518Z,71.64
2023-05-04T01:43:48.288Z,71.87
2023-05-04T01:46:14.913Z,72.31
2023-05-04T01:48:41.663Z,71.82
2023-05-04T01:51:08.247Z,71.49
2023-05-04T01:53:34.846Z,71.84
2023-05-04T01:56:03.181Z,71.44
2023-05-04T01:58:29.987Z,71.55
2023-05-04T02:00:59.166Z,73.07
2023-05-04T02:03:26.133Z,72.90
2023-05-04T02:05:52.802Z,71.92
2023-05-04T02:08:19.490Z,71.16
2023-05-04T02:10:46.399Z,71.35
2023-05-04T02:13:14.607Z,71.26
2023-05-04T02:15:41.562Z,71.94
2023-05-04T02:18:08.392Z,71.94
2023-05-04T02:20:35.189Z,71.81
2023-05-04T02:23:01.814Z,71.70
2023-05-04T02:25:28.542Z,71.05
2023-05-04T02:27:55.180Z,71.21
2023-05-04T02:30:23.157Z,71.09
2023-05-04T02:32:50.048Z,71.16
2023-05-04T02:35:16.791Z,59.68
2023-05-04T02:37:43.391Z,73.15
2023-05-04T02:40:11.507Z,74.41
2023-05-04T02:42:38.197Z,74.87
2023-05-04T02:45:07.442Z,72.16
2023-05-04T02:47:35.536Z,71.63
2023-05-04T02:50:02.353Z,71.88
2023-05-04T02:52:29.066Z,71.61
2023-05-04T02:54:56.852Z,70.99
2023-05-04T02:57:23.445Z,61.70
2023-05-04T02:59:51.024Z,73.22
2023-05-04T03:02:17.704Z,71.16
2023-05-04T03:04:45.817Z,70.73
2023-05-04T03:07:12.913Z,71.65
2023-05-04T03:09:39.591Z,61.62
2023-05-04T03:12:06.397Z,72.09
2023-05-04T03:14:33.059Z,71.02
2023-05-04T03:16:59.768Z,71.90
2023-05-04T03:19:26.384Z,72.01
2023-05-04T03:21:54.529Z,71.25
2023-05-04T03:24:21.143Z,70.80
2023-05-04T03:26:47.821Z,71.86
2023-05-04T03:29:14.495Z,60.39
2023-05-04T03:31:41.242Z,76.41
2023-05-04T03:34:09.666Z,72.40
2023-05-04T03:36:36.304Z,71.75
2023-05-04T03:39:04.277Z,69.04
2023-05-04T03:41:30.953Z,73.13
2023-05-04T03:43:57.586Z,71.66
2023-05-04T03:46:24.267Z,71.26
2023-05-04T03:48:51.311Z,71.25
2023-05-04T03:51:18.113Z,66.82
2023-05-04T03:53:45.270Z,74.31
2023-05-04T03:56:13.306Z,62.09
2023-05-04T03:58:42.841Z,76.11
2023-05-04T04:01:09.538Z,75.53
2023-05-04T04:03:39.257Z,72.08
2023-05-04T04:06:08.630Z,71.71
2023-05-04T04:08:35.363Z,71.19
2023-05-04T04:11:02.024Z,71.72
2023-05-04T04:13:30.167Z,74.98
2023-05-04T04:15:56.911Z,73.06
2023-05-04T04:18:24.473Z,77.44
2023-05-04T04:20:51.402Z,73.36
2023-05-04T04:23:19.190Z,71.26
2023-05-04T04:25:46.166Z,71.60
2023-05-04T04:28:13.374Z,72.33
2023-05-04T04:30:42.776Z,67.63
2023-05-04T04:33:10.224Z,75.73
2023-05-04T04:35:37.318Z,64.36
2023-05-04T04:38:04.232Z,65.17
2023-05-04T04:40:31.083Z,65.01
2023-05-04T04:42:57.721Z,76.51
2023-05-04T04:45:24.720Z,72.25
2023-05-04T04:47:53.061Z,74.04
2023-05-04T04:50:19.724Z,73.09
2023-05-04T04:52:46.428Z,72.22
2023-05-04T04:55:13.365Z,73.19
2023-05-04T04:57:40.080Z,71.83
2023-05-04T05:00:09.980Z,71.79
2023-05-04T05:02:38.165Z,75.65
2023-05-04T05:05:07.393Z,76.95
2023-05-04T05:07:34.107Z,70.18
2023-05-04T05:10:00.717Z,74.38
2023-05-04T05:12:27.285Z,71.88
2023-05-04T05:14:53.952Z,73.33
2023-05-04T05:17:20.900Z,71.84
2023-05-04T05:19:48.080Z,72.57
2023-05-04T05:22:16.438Z,67.01
2023-05-04T05:24:43.121Z,75.08
2023-05-04T05:27:09.967Z,71.81
2023-05-04T05:29:37.294Z,74.89
2023-05-04T05:32:04.484Z,73.37
2023-05-04T05:34:31.368Z,73.08
2023-05-04T05:36:58.323Z,74.11
2023-05-04T05:39:26.432Z,71.96
2023-05-04T05:41:57.206Z,75.31
2023-05-04T05:44:23.889Z,73.56
2023-05-04T05:46:50.612Z,73.00
2023-05-04T05:49:17.168Z,74.28
2023-05-04T05:51:43.735Z,75.60
2023-05-04T05:54:10.452Z,73.94
2023-05-04T05:56:38.399Z,75.49
2023-05-04T05:59:05.027Z,73.33
2023-05-04T06:01:32.170Z,74.31
2023-05-04T06:03:59.007Z,74.38
2023-05-04T06:06:25.744Z,72.33
2023-05-04T06:08:52.381Z,73.21
2023-05-04T06:11:19.251Z,74.19
2023-05-04T06:13:47.182Z,73.10
2023-05-04T06:16:14.491Z,73.10
2023-05-04T06:18:41.203Z,74.06
2023-05-04T06:21:07.933Z,70.09
2023-05-04T06:23:34.580Z,71.05
2023-05-04T06:26:01.424Z,70.93
2023-05-04T06:28:28.027Z,70.14
2023-05-04T06:30:56.681Z,70.28
2023-05-04T06:33:23.389Z,69.84
2023-05-04T06:35:51.792Z,69.13
2023-05-04T06:38:18.390Z,69.44
2023-05-04T06:40:45.096Z,68.85
2023-05-04T06:43:11.711Z,70.13
2023-05-04T06:45:39.560Z,68.76
2023-05-04T06:48:08.855Z,67.30
2023-05-04T06:50:36.210Z,65.53
2023-05-04T06:53:09.081Z,65.29
2023-05-04T06:55:35.787Z,67.27
2023-05-04T06:58:02.760Z,67.09
2023-05-04T07:00:29.533Z,68.35
2023-05-04T07:02:56.393Z,65.33
2023-05-04T07:05:25.212Z,75.26
2023-05-04T07:07:52.013Z,67.32
2023-05-04T07:10:19.570Z,65.76
2023-05-04T07:12:46.940Z,66.86
2023-05-04T07:15:14.029Z,63.78
2023-05-04T07:17:41.209Z,64.46
2023-05-04T07:20:08.855Z,63.34
2023-05-04T07:22:36.939Z,61.76
2023-05-04T07:25:04.127Z,65.19
2023-05-04T07:27:31.326Z,62.70
2023-05-04T07:29:58.002Z,63.29
2023-05-04T07:32:24.662Z,61.13
2023-05-04T07:34:51.415Z,60.62
2023-05-04T07:37:18.119Z,58.85
2023-05-04T07:39:46.153Z,57.50
2023-05-04T07:42:12.762Z,58.85
2023-05-04T07:44:39.485Z,58.87
2023-05-04T07:47:06.796Z,58.00
2023-05-04T07:49:33.786Z,56.62
2023-05-04T07:52:00.467Z,58.35
2023-05-04T07:54:27.429Z,57.38
2023-05-04T07:56:55.737Z,58.25
2023-05-04T07:59:22.317Z,67.90
2023-05-04T08:01:49.108Z,58.05
2023-05-04T08:04:15.893Z,62.62
2023-05-04T08:06:42.628Z,57.74
2023-05-04T08:09:09.455Z,55.97
2023-05-04T08:11:37.625Z,61.58
2023-05-04T08:14:05.706Z,61.32
2023-05-04T08:16:32.546Z,60.06
2023-05-04T08:19:01.128Z,66.74
2023-05-04T08:21:27.951Z,60.98
2023-05-04T08:23:54.654Z,60.04
2023-05-04T08:26:21.264Z,55.45
2023-05-04T08:28:48.417Z,65.29
2023-05-04T08:31:18.439Z,58.91
2023-05-04T08:33:46.157Z,58.45
2023-05-04T08:36:12.922Z,55.70
2023-05-04T08:38:39.561Z,55.01
2023-05-04T08:41:06.820Z,66.69
2023-05-04T08:43:35.276Z,56.75
2023-05-04T08:46:02.036Z,52.79
2023-05-04T08:48:31.662Z,59.53
2023-05-04T08:50:58.745Z,55.29
2023-05-04T08:53:26.999Z,57.76
2023-05-04T08:55:55.989Z,54.12
2023-05-04T08:58:25.998Z,52.44
2023-05-04T09:00:52.819Z,51.80
2023-05-04T09:03:20.268Z,49.65
2023-05-04T09:05:50.712Z,51.89
2023-05-04T09:08:18.256Z,51.72
2023-05-04T09:10:44.858Z,52.12
2023-05-04T09:13:11.458Z,50.70
2023-05-04T09:15:38.068Z,55.53
2023-05-04T09:18:06.339Z,53.29
2023-05-04T09:20:47.143Z,57.42
2023-05-04T09:23:16.230Z,61.75
2023-05-04T09:25:50.490Z,58.79
2023-05-04T09:28:18.281Z,59.13
2023-05-04T09:30:45.747Z,58.12
2023-05-04T09:33:12.501Z,57.63
2023-05-04T09:35:40.884Z,55.67
2023-05-04T09:38:07.484Z,57.68
2023-05-04T09:40:37.761Z,57.90
2023-05-04T09:43:04.719Z,59.53
2023-05-04T09:45:49.173Z,53.21
2023-05-04T09:48:20.505Z,53.74
2023-05-04T09:50:55.953Z,50.96
2023-05-04T09:53:25.083Z,59.08
2023-05-04T09:56:03.405Z,62.64
2023-05-04T09:58:31.390Z,65.72
2023-05-04T10:01:00.890Z,55.56
2023-05-04T10:03:28.093Z,55.65
2023-05-04T10:05:55.025Z,54.48
2023-05-04T10:08:22.418Z,54.32
2023-05-04T10:10:50.026Z,53.90
2023-05-04T10:13:18.127Z,60.25
2023-05-04T10:15:58.255Z,57.13
2023-05-04T10:18:41.329Z,53.37
2023-05-04T10:21:23.335Z,49.45
2023-05-04T10:24:06.537Z,51.98
2023-05-04T10:26:59.717Z,47.43
2023-05-04T10:29:29.936Z,45.84
2023-05-04T10:31:57.026Z,51.33
2023-05-04T10:34:25.873Z,48.46
2023-05-04T10:36:52.819Z,52.33
2023-05-04T10:39:20.567Z,48.26
2023-05-04T10:42:02.149Z,48.92
2023-05-04T10:44:31.341Z,51.41
2023-05-04T10:46:59.914Z,55.06
2023-05-04T10:49:26.895Z,61.44
2023-05-04T10:52:08.794Z,57.45
2023-05-04T10:54:36.221Z,56.86
2023-05-04T10:57:04.780Z,50.45
2023-05-04T10:59:35.416Z,54.68
2023-05-04T11:02:05.112Z,56.38
2023-05-04T11:04:32.184Z,52.19
2023-05-04T11:07:00.520Z,50.21
2023-05-04T11:09:28.188Z,52.22
2023-05-04T11:11:56.396Z,51.25
2023-05-04T11:14:25.989Z,61.22
2023-05-04T11:17:19.572Z,51.38
2023-05-04T11:19:53.117Z,50.52
2023-05-04T11:22:20.180Z,48.56
2023-05-04T11:24:50.688Z,50.95
2023-05-04T11:27:24.850Z,51.34
2023-05-04T11:29:58.546Z,53.36
2023-05-04T11:32:36.101Z,50.42
2023-05-04T11:35:04.254Z,45.76
2023-05-04T11:37:37.375Z,47.33
2023-05-04T11:40:08.942Z,50.96
2023-05-04T11:42:36.304Z,50.58
2023-05-04T11:45:03.588Z,47.50
2023-05-04T11:47:30.556Z,46.95
2023-05-04T11:49:58.631Z,48.48
2023-05-04T11:52:25.819Z,52.06
2023-05-04T11:54:57.014Z,48.02
2023-05-04T11:57:23.793Z,47.20
2023-05-04T11:59:51.012Z,44.43
2023-05-04T12:02:17.959Z,46.59
2023-05-04T12:04:44.711Z,56.64
2023-05-04T12:07:12.752Z,47.25
2023-05-04T12:09:46.785Z,45.92
2023-05-04T12:12:15.350Z,49.66
2023-05-04T12:14:52.401Z,47.86
2023-05-04T12:17:20.372Z,45.79
2023-05-04T12:19:48.132Z,49.09
2023-05-04T12:22:17.289Z,49.70
2023-05-04T12:24:44.046Z,52.84
2023-05-04T12:27:14.668Z,47.70
2023-05-04T12:29:41.548Z,49.33
2023-05-04T12:32:08.474Z,49.39
2023-05-04T12:34:36.448Z,49.47
2023-05-04T12:37:03.146Z,55.59
2023-05-04T12:39:32.651Z,49.22
2023-05-04T12:41:59.725Z,50.02
2023-05-04T12:44:27.036Z,48.27
2023-05-04T12:46:54.118Z,49.96
2023-05-04T12:49:21.515Z,52.37
2023-05-04T12:51:51.907Z,50.99
2023-05-04T12:54:18.639Z,51.70
2023-05-04T12:56:46.703Z,54.14
2023-05-04T12:59:13.269Z,50.58
2023-05-04T13:01:40.235Z,49.73
2023-05-04T13:04:07.043Z,52.85
2023-05-04T13:06:33.729Z,53.33
2023-05-04T13:09:03.835Z,48.23
2023-05-04T13:11:30.440Z,50.53
2023-05-04T13:13:58.397Z,48.26
2023-05-04T13:16:26.821Z,46.71
2023-05-04T13:18:53.965Z,48.65
2023-05-04T13:21:20.975Z,46.31
2023-05-04T13:23:47.547Z,43.71
2023-05-04T13:26:14.171Z,46.77
2023-05-04T13:28:40.849Z,48.00
2023-05-04T13:31:09.669Z,45.20
2023-05-04T13:33:39.226Z,47.39
2023-05-04T13:36:06.689Z,50.02
2023-05-04T13:38:33.383Z,55.32
2023-05-04T13:41:00.109Z,63.03
2023-05-04T13:43:26.978Z,54.66
2023-05-04T13:45:53.739Z,50.82
2023-05-04T13:48:21.920Z,63.61
2023-05-04T13:50:48.521Z,53.00
2023-05-04T13:53:15.138Z,47.29
2023-05-04T13:55:41.730Z,52.61
2023-05-04T13:58:08.349Z,55.36
2023-05-04T14:00:35.008Z,53.04
2023-05-04T14:03:02.226Z,51.54
2023-05-04T14:05:30.326Z,47.91
2023-05-04T14:07:57.212Z,48.58
2023-05-04T14:10:24.052Z,49.21
2023-05-04T14:12:50.876Z,46.97
2023-05-04T14:15:21.188Z,46.56
2023-05-04T14:17:47.932Z,47.55
2023-05-04T14:20:15.504Z,48.89
2023-05-04T14:22:44.308Z,46.84
2023-05-04T14:25:11.238Z,60.30
2023-05-04T14:27:37.924Z,49.44
2023-05-04T14:30:05.875Z,47.40
2023-05-04T14:32:32.667Z,49.08
2023-05-04T14:35:10.483Z,44.49
2023-05-04T14:37:38.739Z,46.51
2023-05-04T14:40:09.392Z,50.74
2023-05-04T14:42:37.157Z,48.70
2023-05-04T14:45:04.242Z,49.46
2023-05-04T14:47:31.052Z,49.44
2023-05-04T14:49:57.772Z,53.31
2023-05-04T14:52:24.641Z,50.40
2023-05-04T14:54:51.332Z,47.11
2023-05-04T14:57:19.487Z,46.71
2023-05-04T14:59:46.152Z,49.22
2023-05-04T15:02:12.853Z,52.53
2023-05-04T15:04:39.601Z,46.39
2023-05-04T15:07:06.334Z,51.45
2023-05-04T15:09:33.190Z,45.94
2023-05-04T15:11:59.995Z,44.90
2023-05-04T15:14:28.012Z,44.69
2023-05-04T15:16:54.760Z,47.27
2023-05-04T15:19:21.640Z,51.33
2023-05-04T15:21:49.116Z,49.33
2023-05-04T15:24:15.864Z,46.37
2023-05-04T15:26:42.482Z,46.36
2023-05-04T15:29:09.102Z,44.26
2023-05-04T15:31:38.427Z,47.79
2023-05-04T15:34:04.990Z,47.84
2023-05-04T15:36:31.856Z,51.33
2023-05-04T15:38:58.516Z,46.16
2023-05-04T15:41:25.216Z,48.94
2023-05-04T15:43:51.840Z,46.13
2023-05-04T15:46:18.491Z,47.38
2023-05-04T15:48:46.534Z,47.77
2023-05-04T15:51:13.541Z,49.32
2023-05-04T15:53:40.229Z,46.86
2023-05-04T15:56:06.905Z,46.52
2023-05-04T15:58:33.740Z,48.07
2023-05-04T16:01:03.821Z,51.36
2023-05-04T16:03:31.132Z,50.32
2023-05-04T16:05:59.127Z,50.06
2023-05-04T16:08:26.137Z,48.58
2023-05-04T16:10:53.548Z,50.28
2023-05-04T16:13:20.561Z,50.89
2023-05-04T16:15:49.935Z,49.77
2023-05-04T16:18:17.317Z,49.60
2023-05-04T16:20:44.026Z,52.90
2023-05-04T16:23:13.496Z,49.67
2023-05-04T16:25:40.516Z,49.55
2023-05-04T16:28:07.599Z,51.04
2023-05-04T16:30:34.564Z,49.18
2023-05-04T16:33:02.096Z,47.88
2023-05-04T16:35:29.996Z,50.76
2023-05-04T16:37:56.845Z,51.13
2023-05-04T16:40:25.167Z,50.04
2023-05-04T16:42:51.902Z,50.23
2023-05-04T16:45:18.848Z,52.15
2023-05-04T16:47:45.719Z,53.09
2023-05-04T16:50:13.461Z,56.88
2023-05-04T16:52:40.508Z,50.97
2023-05-04T16:55:10.633Z,55.98
2023-05-04T16:57:39.777Z,63.33
2023-05-04T17:00:08.017Z,63.19
2023-05-04T17:02:35.131Z,64.57
2023-05-04T17:05:01.987Z,65.82
2023-05-04T17:07:28.981Z,66.33
2023-05-04T17:09:55.818Z,66.88
2023-05-04T17:12:23.304Z,66.74
2023-05-04T17:14:51.557Z,67.42
2023-05-04T17:17:18.490Z,67.58
2023-05-04T17:19:46.072Z,67.79
2023-05-04T17:22:12.726Z,67.98
2023-05-04T17:24:39.438Z,67.82
2023-05-04T17:27:06.134Z,68.13
2023-05-04T17:29:32.862Z,67.63
2023-05-04T17:32:01.032Z,67.69
2023-05-04T17:34:27.841Z,67.77
2023-05-04T17:36:54.606Z,68.04
2023-05-04T17:39:21.306Z,67.63
2023-05-04T17:41:48.938Z,67.44
2023-05-04T17:44:16.388Z,67.51
2023-05-04T17:46:43.629Z,67.26
2023-05-04T17:49:11.773Z,67.79
2023-05-04T17:51:39.482Z,65.02
2023-05-04T17:54:06.134Z,67.23
2023-05-04T17:56:32.830Z,67.47
2023-05-04T17:58:59.488Z,67.92
2023-05-04T18:01:26.798Z,67.88
2023-05-04T18:03:53.607Z,67.83
2023-05-04T18:06:21.670Z,67.91
2023-05-04T18:08:48.372Z,68.07
2023-05-04T18:11:15.076Z,67.99
2023-05-04T18:13:41.731Z,68.19
2023-05-04T18:16:08.484Z,68.28
2023-05-04T18:18:35.117Z,68.47
2023-05-04T18:21:01.778Z,68.51
2023-05-04T18:23:30.078Z,68.37
2023-05-04T18:25:56.663Z,59.27
2023-05-04T18:28:23.302Z,67.80
2023-05-04T18:30:49.877Z,67.80
2023-05-04T18:33:16.495Z,59.96
2023-05-04T18:35:43.095Z,64.94
2023-05-04T18:38:09.662Z,60.72
2023-05-04T18:40:37.644Z,67.90
2023-05-04T18:43:04.335Z,68.55
2023-05-04T18:45:31.246Z,58.23
2023-05-04T18:47:57.966Z,68.45
2023-05-04T18:50:24.653Z,68.28
2023-05-04T18:52:51.295Z,68.01
2023-05-04T18:55:18.005Z,67.76
2023-05-04T18:57:46.261Z,68.14
2023-05-04T19:00:13.983Z,68.47
2023-05-04T19:02:40.696Z,67.99
2023-05-04T19:05:07.822Z,68.26
2023-05-04T19:07:34.417Z,67.90
2023-05-04T19:10:01.334Z,68.10
2023-05-04T19:12:27.981Z,68.19
2023-05-04T19:14:56.036Z,67.82
2023-05-04T19:17:22.780Z,68.33
2023-05-04T19:19:49.679Z,68.26
2023-05-04T19:22:16.911Z,68.33
2023-05-04T19:24:43.580Z,68.10
2023-05-04T19:27:10.484Z,68.09
2023-05-04T19:29:37.104Z,68.18
2023-05-04T19:32:19.700Z,67.68
2023-05-04T19:34:49.910Z,67.84
2023-05-04T19:37:16.540Z,68.56
2023-05-04T19:39:43.245Z,67.95
2023-05-04T19:42:09.903Z,67.88
2023-05-04T19:44:36.643Z,67.63
2023-05-04T19:47:04.788Z,57.27
2023-05-04T19:49:31.446Z,66.39
2023-05-04T19:51:58.093Z,72.00
2023-05-04T19:54:24.796Z,68.89
2023-05-04T19:56:51.478Z,68.16
2023-05-04T19:59:18.103Z,67.74
2023-05-04T20:01:44.868Z,67.88
2023-05-04T20:04:12.899Z,67.66
2023-05-04T20:06:39.557Z,67.44
2023-05-04T20:09:06.706Z,67.74
2023-05-04T20:11:33.741Z,69.78
2023-05-04T20:14:00.916Z,68.85
2023-05-04T20:16:27.509Z,68.08
2023-05-04T20:18:54.177Z,62.50
2023-05-04T20:21:22.149Z,60.85
2023-05-04T20:23:48.842Z,70.93
2023-05-04T20:26:15.405Z,68.28
2023-05-04T20:28:42.049Z,67.89
2023-05-04T20:31:09.263Z,67.64
2023-05-04T20:33:36.796Z,68.38
2023-05-04T20:36:04.701Z,67.54
2023-05-04T20:38:32.860Z,67.93
2023-05-04T20:41:05.485Z,68.55
2023-05-04T20:43:32.102Z,64.76
2023-05-04T20:45:58.703Z,68.01
2023-05-04T20:48:25.298Z,68.44
2023-05-04T20:50:57.122Z,68.02
2023-05-04T20:53:36.069Z,65.29
2023-05-04T20:56:04.509Z,77.30
2023-05-04T20:58:31.276Z,70.75
2023-05-04T21:01:02.658Z,65.15
2023-05-04T21:03:29.501Z,71.75
2023-05-04T21:05:56.566Z,69.14
2023-05-04T21:08:23.163Z,64.87
2023-05-04T21:10:49.885Z,68.65
2023-05-04T21:13:17.926Z,68.90
2023-05-04T21:15:46.784Z,68.15
2023-05-04T21:18:13.523Z,68.43
2023-05-04T21:20:40.255Z,68.45
2023-05-04T21:23:07.816Z,68.40
2023-05-04T21:25:34.977Z,67.70
2023-05-04T21:28:04.569Z,70.44
2023-05-04T21:30:32.748Z,69.88
2023-05-04T21:33:00.414Z,68.57
2023-05-04T21:35:30.704Z,57.94
2023-05-04T21:37:58.472Z,68.90
2023-05-04T21:40:27.300Z,66.67
2023-05-04T21:42:54.019Z,68.09
2023-05-04T21:45:20.737Z,68.43
2023-05-04T21:47:49.090Z,73.89
2023-05-04T21:50:16.345Z,70.73
2023-05-04T21:52:42.923Z,68.63
2023-05-04T21:55:09.863Z,68.06
2023-05-04T21:57:37.269Z,67.75
2023-05-04T22:00:11.879Z,68.22
2023-05-04T22:02:38.995Z,68.23
2023-05-04T22:05:07.786Z,67.68
2023-05-04T22:07:36.554Z,67.91
2023-05-04T22:10:03.479Z,68.27
2023-05-04T22:12:30.612Z,68.15
2023-05-04T22:14:57.269Z,68.91
2023-05-04T22:17:23.953Z,64.90
2023-05-04T22:19:50.816Z,67.49
2023-05-04T22:22:18.778Z,66.39
2023-05-04T22:24:45.540Z,68.06
2023-05-04T22:27:12.338Z,68.31
2023-05-04T22:29:39.314Z,69.80
2023-05-04T22:32:06.006Z,69.45
2023-05-04T22:34:32.738Z,68.52
2023-05-04T22:36:59.314Z,68.40
2023-05-04T22:39:27.255Z,68.36
2023-05-04T22:41:53.890Z,68.10
2023-05-04T22:44:20.546Z,68.17
2023-05-04T22:46:48.252Z,67.90
2023-05-04T22:49:17.304Z,67.96
2023-05-04T22:51:43.902Z,68.38
2023-05-04T22:54:10.506Z,67.49
2023-05-04T22:56:38.486Z,68.05
2023-05-04T22:59:06.263Z,67.88
2023-05-04T23:01:33.083Z,67.94
2023-05-04T23:03:59.813Z,67.83
2023-05-04T23:06:28.389Z,68.18
2023-05-04T23:08:54.987Z,67.88
2023-05-04T23:11:22.071Z,59.40
2023-05-04T23:13:50.042Z,73.57
2023-05-04T23:16:16.690Z,69.73
2023-05-04T23:18:43.390Z,64.77
2023-05-04T23:21:09.949Z,70.72
2023-05-04T23:23:36.591Z,62.45
2023-05-04T23:26:03.558Z,74.01
2023-05-04T23:28:30.337Z,70.37
2023-05-04T23:30:58.304Z,70.44
2023-05-04T23:33:24.913Z,57.66
2023-05-04T23:35:54.508Z,71.18
2023-05-04T23:38:21.262Z,59.26
2023-05-04T23:40:48.013Z,70.46
2023-05-04T23:43:14.621Z,68.52
2023-05-04T23:45:41.213Z,68.33
2023-05-04T23:48:09.525Z,69.43
2023-05-04T23:50:36.256Z,68.57
2023-05-04T23:53:03.057Z,67.85
2023-05-04T23:55:29.662Z,62.52
2023-05-04T23:57:56.333Z,69.03
